Terminal Aerodrome Forecast
Issued by NWS

Home | Current Version | Previous Version | Text Only | Print | Product List | Glossary On
Versions: 1 2 3 4 5 6 7 8 9 10 11 12 13 14 15 16 17 18 19 20 21 22 23 24 25 26 27 28 29 30 31 32
000
FTUS45 KBOI 141740
TAFTWF
TAF
KTWF 141740Z 1418/1518 VRB03KT 1/4SM FZFG OVC002
      TEMPO 1418/1420 1SM BR OVC004
     FM142000 VRB04KT 3SM BR OVC004
     FM150600 VRB04KT 1/2SM FZFG OVC002=

USA.gov is the U.S. government's official web portal to all federal, state and local government web resources and services.